This is the latest recevied weather packets stored in our database for station/object KA2FNK. If no packets are shown the sender has not sent any weather packets the latest 1 day(s).
| Time | Temp. | Humidity | Pressure | Rain* | Wind** | Luminosity | Snow |
|---|---|---|---|---|---|---|---|
| 1778032560 | 10° C | 90% | 1011.6 hPa | 0 mm | - | - | - |
| 1778032259 | 10° C | 89% | 1011.6 hPa | 0 mm | - | - | - |
| 1778031958 | 10° C | 89% | 1011.6 hPa | 0 mm | - | - | - |
| 1778031657 | 10.56° C | 88% | 1011.5 hPa | 0 mm | - | - | - |
| 1778031356 | 10.56° C | 88% | 1011.5 hPa | 0 mm | - | - | - |
| 1778031055 | 10.56° C | 88% | 1011.5 hPa | 0 mm | - | - | - |
| 1778030754 | 10.56° C | 87% | 1011.5 hPa | 0 mm | - | - | - |
| 1778030453 | 10.56° C | 87% | 1011.5 hPa | 0 mm | - | - | - |
| 1778030152 | 10.56° C | 86% | 1011.4 hPa | 0 mm | - | - | - |
| 1778029851 | 11.11° C | 86% | 1011.5 hPa | 0 mm | - | - | - |
| 1778029249 | 11.11° C | 86% | 1011.4 hPa | 0 mm | - | - | - |
| 1778028948 | 11.11° C | 85% | 1011.3 hPa | 0 mm | - | - | - |
| 1778028647 | 11.11° C | 85% | 1011.4 hPa | 0 mm | - | - | - |
| 1778028346 | 11.11° C | 85% | 1011.3 hPa | 0 mm | - | - | - |
| 1778025939 | 11.11° C | 83% | 1011 hPa | 0 mm | - | - | - |
| 1778024133 | 11.11° C | 84% | 1011.2 hPa | 0 mm | - | - | - |
| 1778021424 | 11.11° C | 85% | 1011.1 hPa | 0 mm | - | - | - |
| 1778020219 | 10.56° C | 85% | 1011.1 hPa | 0 mm | - | - | - |
| 1778017811 | 10° C | 85% | 1011.1 hPa | 0 mm | - | - | - |
| 1778016909 | 10° C | 86% | 1011.2 hPa | 0 mm | - | - | - |
| 1778016608 | 10° C | 86% | 1011.3 hPa | 0 mm | - | - | - |
| 1778014501 | 9.44° C | 88% | 1011.5 hPa | 0 mm | - | - | - |
| 1778012695 | 9.44° C | 91% | 1011.6 hPa | 0 mm | - | - | - |
| 1778011491 | 8.89° C | 89% | 1011.7 hPa | 0 mm | - | - | - |
| 1778009986 | 8.89° C | 90% | 1011.6 hPa | 0 mm | - | - | - |
* Rain latest hour (hover to see other rain measurements)
** Current wind speed in m/s (hover to see current wind gust speed)